createdAt,value
2022-11-16T06:16:06.470Z,6.76
2022-11-16T06:26:06.549Z,6.66
2022-11-16T06:36:06.464Z,6.60
2022-11-16T06:46:06.504Z,6.52
2022-11-16T06:56:06.357Z,6.48
2022-11-16T07:06:06.534Z,6.42
2022-11-16T07:16:06.569Z,6.37
2022-11-16T07:26:06.596Z,6.27
2022-11-16T07:36:06.543Z,6.25
2022-11-16T07:46:44.726Z,6.23
2022-11-16T07:56:06.661Z,6.23
2022-11-16T08:06:06.868Z,6.21
2022-11-16T08:16:06.565Z,6.18
2022-11-16T08:26:06.696Z,6.13
2022-11-16T08:36:12.531Z,6.08
2022-11-16T08:46:06.482Z,6.02
2022-11-16T08:56:06.713Z,5.96
2022-11-16T09:06:06.548Z,5.96
2022-11-16T09:16:06.503Z,5.96
2022-11-16T09:26:06.669Z,5.90
2022-11-16T09:36:06.558Z,5.87
2022-11-16T09:46:06.553Z,5.88
2022-11-16T09:56:06.662Z,5.91
2022-11-16T10:06:06.440Z,5.83
2022-11-16T10:16:06.535Z,5.90
2022-11-16T10:26:06.603Z,5.92
2022-11-16T10:36:06.713Z,6.00
2022-11-16T10:46:06.527Z,6.12
2022-11-16T10:56:06.566Z,6.12
2022-11-16T11:06:06.709Z,6.06
2022-11-16T11:16:06.526Z,6.10
2022-11-16T11:26:06.759Z,6.08
2022-11-16T11:36:06.693Z,6.03
2022-11-16T11:46:06.912Z,6.05
2022-11-16T11:56:06.924Z,6.06
2022-11-16T12:06:06.823Z,6.05
2022-11-16T12:16:06.831Z,6.09
2022-11-16T12:26:06.785Z,6.08
2022-11-16T12:36:06.767Z,6.11
2022-11-16T12:46:06.937Z,6.11
2022-11-16T12:56:06.791Z,6.10
2022-11-16T13:06:06.800Z,6.09
2022-11-16T13:16:06.823Z,6.08
2022-11-16T13:26:06.896Z,6.11
2022-11-16T13:36:06.643Z,6.15
2022-11-16T13:46:06.848Z,6.19
2022-11-16T13:56:06.712Z,6.16
2022-11-16T14:06:06.766Z,6.15
2022-11-16T14:16:06.741Z,6.08
2022-11-16T14:26:06.795Z,6.09
2022-11-16T14:36:06.836Z,6.05
2022-11-16T14:46:06.734Z,6.06
2022-11-16T14:56:06.762Z,6.03
2022-11-16T15:06:06.852Z,5.97
2022-11-16T15:16:06.722Z,5.98
2022-11-16T15:26:06.839Z,6.01
2022-11-16T15:36:06.895Z,5.97
2022-11-16T15:46:06.883Z,5.97
2022-11-16T15:56:06.880Z,5.96
2022-11-16T16:06:06.864Z,5.99
2022-11-16T16:16:06.757Z,6.01
2022-11-16T16:26:06.856Z,6.02
2022-11-16T16:36:06.898Z,5.96
2022-11-16T16:46:06.864Z,5.94
2022-11-16T16:56:06.771Z,5.94
2022-11-16T17:06:06.784Z,5.87
2022-11-16T17:16:06.748Z,5.86
2022-11-16T17:26:06.823Z,5.89
2022-11-16T17:36:06.982Z,5.90
2022-11-16T17:46:07.019Z,5.90
2022-11-16T17:56:06.875Z,5.90
2022-11-16T18:06:06.977Z,5.88
2022-11-16T18:16:06.793Z,5.86
2022-11-16T18:26:07.108Z,5.86
2022-11-16T18:36:07.115Z,5.87
2022-11-16T18:46:07.336Z,5.94
2022-11-16T18:56:07.413Z,5.97
2022-11-16T19:06:07.384Z,6.03
2022-11-16T19:16:07.840Z,6.05
